Time;durP1;ratioP1;P1;durP2;ratioP2;P2;SDS_P1;SDS_P2;PMS_P1;PMS_P2;Temp;Humidity;BMP_temperature;BMP_pressure;BME280_temperature;BME280_humidity;BME280_pressure;Samples;Min_cycle;Max_cycle;Signal;HPM_P1;HPM_P2
2022/09/21 00:00:31;;;;;;;1.42;0.77;;;;;;;;;;5042037;28;20166;-69
2022/09/21 00:02:57;;;;;;;4.10;0.80;;;;;;;;;;5041559;28;20178;-69
2022/09/21 00:05:24;;;;;;;1.55;0.95;;;;;;;;;;5058189;28;20044;-70
2022/09/21 00:07:51;;;;;;;2.78;0.77;;;;;;;;;;5058101;28;20128;-69
2022/09/21 00:10:18;;;;;;;1.08;0.70;;;;;;;;;;5041517;28;20090;-69
2022/09/21 00:12:47;;;;;;;1.40;1.10;;;;;;;;;;5041384;28;20090;-68
2022/09/21 00:15:13;;;;;;;1.35;0.60;;;;;;;;;;5057942;28;20047;-68
2022/09/21 00:17:39;;;;;;;3.45;0.80;;;;;;;;;;5057906;28;20040;-69
2022/09/21 00:20:06;;;;;;;2.58;0.50;;;;;;;;;;5041119;28;20057;-69
2022/09/21 00:22:33;;;;;;;2.13;0.85;;;;;;;;;;5057913;28;20052;-69
2022/09/21 00:25:01;;;;;;;0.63;0.63;;;;;;;;;;5041259;28;20045;-69
2022/09/21 00:27:28;;;;;;;1.52;0.80;;;;;;;;;;5041562;28;20051;-69
2022/09/21 00:30:02;;;;;;;1.05;0.73;;;;;;;;;;5041211;28;20037;-70
2022/09/21 00:32:30;;;;;;;2.22;0.88;;;;;;;;;;5057984;28;20044;-68
2022/09/21 00:34:59;;;;;;;3.45;1.20;;;;;;;;;;5057658;28;20044;-68
2022/09/21 00:37:26;;;;;;;1.33;0.88;;;;;;;;;;5056721;28;20047;-70
2022/09/21 00:39:52;;;;;;;1.15;0.70;;;;;;;;;;5057849;28;20075;-69
2022/09/21 00:42:20;;;;;;;3.63;0.90;;;;;;;;;;5057740;28;20048;-68
2022/09/21 00:44:46;;;;;;;1.40;1.00;;;;;;;;;;5057479;28;20040;-69
2022/09/21 00:47:14;;;;;;;3.45;1.15;;;;;;;;;;5057301;28;20083;-69
2022/09/21 00:49:41;;;;;;;1.48;0.70;;;;;;;;;;5057352;28;20129;-68
2022/09/21 00:52:09;;;;;;;2.25;0.95;;;;;;;;;;5057518;28;20037;-69
2022/09/21 00:54:44;;;;;;;2.33;1.00;;;;;;;;;;5040916;28;20480;-69
2022/09/21 00:57:11;;;;;;;3.30;0.70;;;;;;;;;;5040520;28;20041;-69
2022/09/21 00:59:39;;;;;;;1.02;0.75;;;;;;;;;;5057216;28;20047;-69
2022/09/21 01:02:05;;;;;;;0.95;0.70;;;;;;;;;;5057439;28;20558;-69
2022/09/21 01:04:32;;;;;;;1.23;0.73;;;;;;;;;;5057110;28;20083;-68
2022/09/21 01:07:00;;;;;;;1.85;0.80;;;;;;;;;;5056961;28;20514;-68
2022/09/21 01:09:26;;;;;;;1.27;0.90;;;;;;;;;;5057030;28;20050;-69
2022/09/21 01:11:53;;;;;;;1.85;1.02;;;;;;;;;;5040375;28;20037;-70
2022/09/21 01:14:36;;;;;;;0.95;0.88;;;;;;;;;;5040608;28;20068;-68
2022/09/21 01:17:14;;;;;;;1.65;1.00;;;;;;;;;;5040322;28;20047;-69
2022/09/21 01:19:59;;;;;;;2.88;1.25;;;;;;;;;;5040078;28;20131;-68
2022/09/21 01:22:35;;;;;;;3.85;1.10;;;;;;;;;;5040066;28;20040;-68
2022/09/21 01:25:10;;;;;;;1.08;0.85;;;;;;;;;;5056893;28;20480;-68
2022/09/21 01:27:40;;;;;;;2.33;1.20;;;;;;;;;;5056569;28;20083;-67
2022/09/21 01:30:11;;;;;;;1.08;0.82;;;;;;;;;;5056574;28;20036;-68
2022/09/21 01:32:43;;;;;;;2.42;1.25;;;;;;;;;;5039915;28;20123;-69
2022/09/21 01:35:16;;;;;;;3.22;1.00;;;;;;;;;;5056471;28;20036;-69
2022/09/21 01:37:55;;;;;;;1.35;0.90;;;;;;;;;;5039870;28;20041;-69
2022/09/21 01:40:24;;;;;;;1.40;0.82;;;;;;;;;;5056704;28;20558;-67
2022/09/21 01:42:51;;;;;;;1.63;0.93;;;;;;;;;;5040144;28;20098;-67
2022/09/21 01:45:18;;;;;;;3.67;1.70;;;;;;;;;;5056434;28;20040;-66
2022/09/21 01:47:46;;;;;;;3.13;1.08;;;;;;;;;;5039796;28;20052;-67
2022/09/21 01:50:13;;;;;;;1.42;0.90;;;;;;;;;;5056401;28;20443;-67
2022/09/21 01:52:46;;;;;;;1.08;0.70;;;;;;;;;;5056202;28;20072;-67
2022/09/21 01:55:14;;;;;;;0.80;0.57;;;;;;;;;;5039534;28;20119;-67
2022/09/21 01:57:56;;;;;;;3.95;1.10;;;;;;;;;;5039420;28;20101;-67
2022/09/21 02:00:24;;;;;;;0.95;0.70;;;;;;;;;;5056343;28;20098;-67
2022/09/21 02:03:13;;;;;;;1.83;0.88;;;8.60;99.90;;;;;;5056291;28;20040;-67
2022/09/21 02:05:39;;;;;;;1.77;1.08;;;8.70;99.90;;;;;;5039577;28;20492;-67
2022/09/21 02:08:06;;;;;;;2.13;0.80;;;;;;;;;;5022959;28;20059;-67
2022/09/21 02:10:32;;;;;;;1.00;0.77;;;;;;;;;;5055911;28;20089;-67
2022/09/21 02:13:01;;;;;;;2.20;1.00;;;;;;;;;;5039230;28;20067;-68
2022/09/21 02:15:54;;;;;;;1.90;1.10;;;8.40;99.90;;;;;;5039184;28;20047;-68
2022/09/21 02:18:30;;;;;;;1.98;0.98;;;;;;;;;;5056384;28;20041;-67
2022/09/21 02:20:57;;;;;;;0.93;0.80;;;;;;;;;;5055659;28;20333;-69
2022/09/21 02:23:27;;;;;;;2.33;1.30;;;;;;;;;;5055935;28;20487;-68
2022/09/21 02:26:09;;;;;;;3.20;1.30;;;;;;;;;;5055887;28;20036;-68
2022/09/21 02:28:43;;;;;;;2.53;0.80;;;;;;;;;;5038827;28;20044;-68
2022/09/21 02:31:16;;;;;;;3.03;1.17;;;;;;;;;;5039238;28;20048;-67
2022/09/21 02:34:06;;;;;;;2.45;1.13;;;;;;;;;;5038918;28;20040;-67
2022/09/21 02:36:35;;;;;;;2.22;1.23;;;;;;;;;;5046899;28;20091;-67
2022/09/21 02:39:07;;;;;;;1.95;1.25;;;;;;;;;;5056532;28;20041;-69
2022/09/21 02:41:37;;;;;;;1.73;1.00;;;;;;;;;;5039138;28;20041;-68
2022/09/21 02:44:06;;;;;;;1.77;1.17;;;;;;;;;;5055471;28;20040;-68
2022/09/21 02:46:56;;;;;;;3.58;1.10;;;;;;;;;;5055574;28;20048;-68
2022/09/21 02:49:27;;;;;;;1.23;0.75;;;;;;;;;;5045055;28;20079;-67
2022/09/21 02:51:57;;;;;;;1.58;0.88;;;;;;;;;;5038516;28;20033;-68
2022/09/21 02:54:26;;;;;;;1.63;0.93;;;;;;;;;;5055179;28;20043;-67
2022/09/21 02:56:54;;;;;;;2.13;1.00;;;8.10;99.90;;;;;;5055197;28;20040;-67
2022/09/21 02:59:22;;;;;;;1.65;0.90;;;8.60;99.90;;;;;;5022447;28;20040;-67
2022/09/21 03:01:48;;;;;;;3.75;0.95;;;8.00;99.90;;;;;;5054796;28;20411;-67
2022/09/21 03:04:15;;;;;;;1.63;1.00;;;8.30;99.90;;;;;;5055286;28;20040;-67
2022/09/21 03:06:40;;;;;;;5.60;1.30;;;8.00;99.90;;;;;;5055323;28;20040;-67
2022/09/21 03:09:07;;;;;;;2.08;1.02;;;8.20;99.90;;;;;;5055160;28;20120;-67
2022/09/21 03:11:34;;;;;;;1.27;1.00;;;7.90;99.90;;;;;;5038499;28;20036;-67
2022/09/21 03:14:04;;;;;;;1.35;0.93;;;7.70;99.90;;;;;;5038401;28;20044;-68
2022/09/21 03:16:30;;;;;;;2.25;0.90;;;7.40;99.90;;;;;;5038702;28;20036;-67
2022/09/21 03:18:55;;;;;;;1.77;0.90;;;7.70;99.90;;;;;;5055321;28;20100;-69
2022/09/21 03:21:21;;;;;;;1.20;0.70;;;7.70;99.90;;;;;;5038190;28;20084;-68
2022/09/21 03:23:47;;;;;;;2.95;0.95;;;8.00;99.90;;;;;;5055144;28;20043;-67
2022/09/21 03:26:13;;;;;;;2.28;1.15;;;7.60;99.90;;;;;;5022020;28;20040;-68
2022/09/21 03:28:38;;;;;;;1.15;0.80;;;7.60;99.90;;;;;;5054824;28;20063;-67
2022/09/21 03:31:05;;;;;;;2.03;0.90;;;7.60;99.90;;;;;;5055163;28;20032;-68
2022/09/21 03:33:31;;;;;;;5.53;0.98;;;7.60;99.90;;;;;;5038265;28;20037;-68
2022/09/21 03:35:57;;;;;;;2.75;1.10;;;7.60;99.90;;;;;;5038507;28;20040;-67
2022/09/21 03:38:24;;;;;;;1.85;1.15;;;7.50;99.90;;;;;;5055069;28;20048;-67
2022/09/21 03:40:50;;;;;;;0.82;0.70;;;7.40;99.90;;;;;;5038595;28;20041;-67
2022/09/21 03:43:17;;;;;;;7.18;1.25;;;7.50;99.90;;;;;;5054685;28;20094;-67
2022/09/21 03:45:44;;;;;;;1.70;1.00;;;7.50;99.90;;;;;;5038287;28;20127;-67
2022/09/21 03:48:11;;;;;;;3.08;1.10;;;7.50;99.90;;;;;;5054679;28;20067;-68
2022/09/21 03:50:38;;;;;;;1.20;0.70;;;7.50;99.90;;;;;;5054712;28;20040;-68
2022/09/21 03:53:04;;;;;;;2.45;0.90;;;7.50;99.90;;;;;;5038055;28;20040;-67
2022/09/21 03:55:31;;;;;;;0.73;0.60;;;7.40;99.90;;;;;;5038525;28;20048;-67
2022/09/21 03:57:57;;;;;;;2.72;0.90;;;7.50;99.90;;;;;;5054989;28;20048;-69
2022/09/21 04:00:23;;;;;;;1.88;1.30;;;7.80;99.90;;;;;;5054710;28;20055;-67
2022/09/21 04:02:48;;;;;;;1.88;0.98;;;8.00;99.90;;;;;;5054614;28;20584;-67
2022/09/21 04:05:15;;;;;;;0.95;0.90;;;7.40;99.90;;;;;;5054551;28;20045;-67
2022/09/21 04:07:44;;;;;;;4.47;0.80;;;7.40;99.90;;;;;;5037983;28;20049;-67
2022/09/21 04:10:12;;;;;;;3.17;0.90;;;7.40;99.90;;;;;;5021823;28;20047;-67
2022/09/21 04:12:42;;;;;;;4.18;1.17;;;7.40;99.90;;;;;;5038883;28;20048;-68
2022/09/21 04:15:14;;;;;;;1.60;0.85;;;7.50;99.90;;;;;;5058111;28;20041;-67
2022/09/21 04:17:40;;;;;;;2.35;1.00;;;7.40;99.90;;;;;;5058416;28;20036;-67
2022/09/21 04:20:07;;;;;;;2.55;1.02;;;7.50;99.90;;;;;;5058055;28;20083;-68
2022/09/21 04:22:34;;;;;;;1.27;0.70;;;7.40;99.90;;;;;;5041378;28;20056;-69
2022/09/21 04:25:00;;;;;;;1.30;0.90;;;7.40;99.90;;;;;;5058234;28;20482;-68
2022/09/21 04:27:26;;;;;;;2.63;0.82;;;7.40;99.90;;;;;;5041274;28;20043;-69
2022/09/21 04:29:51;;;;;;;3.08;0.73;;;7.40;99.90;;;;;;5057829;28;20037;-68
2022/09/21 04:32:17;;;;;;;1.40;0.95;;;7.60;99.90;;;;;;5041118;28;20037;-68
2022/09/21 04:34:43;;;;;;;3.60;1.08;;;7.30;99.90;;;;;;5041206;28;20036;-68
2022/09/21 04:37:12;;;;;;;2.67;1.10;;;7.40;99.90;;;;;;5057876;28;20438;-68
2022/09/21 04:39:38;;;;;;;2.80;0.88;;;7.30;99.90;;;;;;5057811;28;20131;-67
2022/09/21 04:42:04;;;;;;;1.20;0.73;;;7.30;99.90;;;;;;5040895;28;20041;-67
2022/09/21 04:44:30;;;;;;;2.00;1.10;;;7.30;99.90;;;;;;5041015;28;20043;-68
2022/09/21 04:46:57;;;;;;;1.60;0.70;;;7.20;99.90;;;;;;5057825;28;20045;-68
2022/09/21 04:49:22;;;;;;;4.03;1.00;;;7.20;99.90;;;;;;5041039;28;20597;-67
2022/09/21 04:51:48;;;;;;;2.22;1.00;;;7.20;99.90;;;;;;5057632;28;20033;-67
2022/09/21 04:54:14;;;;;;;0.82;0.63;;;7.60;99.90;;;;;;5057307;28;20085;-67
2022/09/21 04:56:40;;;;;;;1.88;1.02;;;7.20;99.90;;;;;;5040748;28;20077;-67
2022/09/21 04:59:05;;;;;;;1.52;0.90;;;7.10;99.90;;;;;;5041065;28;20518;-67
2022/09/21 05:01:31;;;;;;;4.90;1.33;;;7.00;99.90;;;;;;5057289;28;20076;-67
2022/09/21 05:04:00;;;;;;;3.17;1.23;;;7.00;99.90;;;;;;5041221;28;20123;-68
2022/09/21 05:06:27;;;;;;;3.38;1.23;;;6.90;99.90;;;;;;5057053;28;20044;-67
2022/09/21 05:11:37;;;;;;;1.77;1.00;;;7.00;99.90;;;;;;5057320;28;20549;-68
2022/09/21 05:14:04;;;;;;;2.45;0.93;;;7.00;99.90;;;;;;5040698;28;20032;-68
2022/09/21 05:16:29;;;;;;;1.48;0.98;;;7.00;99.90;;;;;;5008600;28;20036;-67
2022/09/21 05:18:55;;;;;;;2.10;0.88;;;6.90;99.90;;;;;;5058421;28;20073;-68
2022/09/21 05:21:21;;;;;;;2.47;1.00;;;7.00;99.90;;;;;;5058015;28;20493;-68
2022/09/21 05:23:47;;;;;;;3.13;1.17;;;6.90;99.90;;;;;;5057734;28;20384;-67
2022/09/21 05:26:13;;;;;;;1.65;0.82;;;7.00;99.90;;;;;;5041571;28;20036;-68
2022/09/21 05:28:38;;;;;;;3.40;1.00;;;6.90;99.90;;;;;;5058780;28;20072;-68
2022/09/21 05:31:30;;;;;;;3.55;1.00;;;6.90;99.90;;;;;;5058400;28;20083;-69
2022/09/21 05:34:11;;;;;;;1.15;0.70;;;6.90;99.90;;;;;;5058138;28;20044;-69
2022/09/21 05:37:01;;;;;;;2.20;0.85;;;6.90;99.90;;;;;;5057929;28;20093;-69
2022/09/21 05:39:27;;;;;;;1.23;0.90;;;6.90;99.90;;;;;;5057720;28;20511;-68
2022/09/21 05:41:54;;;;;;;0.75;0.60;;;6.90;99.90;;;;;;5060967;28;20070;-70
2022/09/21 05:44:20;;;;;;;2.58;1.17;;;7.00;99.90;;;;;;5043037;28;20040;-69
2022/09/21 05:47:08;;;;;;;1.08;0.70;;;7.00;99.90;;;;;;5041028;28;20103;-69
2022/09/21 05:49:55;;;;;;;3.28;0.82;;;7.00;99.90;;;;;;5057956;28;20036;-69
2022/09/21 05:52:25;;;;;;;1.38;0.90;;;7.00;99.90;;;;;;5057360;28;20107;-67
2022/09/21 05:55:18;;;;;;;0.90;0.70;;;7.00;99.90;;;;;;5040039;28;20037;-69
2022/09/21 05:58:09;;;;;;;3.53;1.10;;;7.10;99.90;;;;;;5056130;28;20078;-71
2022/09/21 06:01:16;;;;;;;1.20;0.80;;;7.10;99.90;;;;;;5056161;28;20041;-70
2022/09/21 06:03:42;;;;;;;2.80;0.80;;;7.10;99.90;;;;;;5030022;28;20045;-68
2022/09/21 06:06:08;;;;;;;2.22;0.75;;;7.20;99.90;;;;;;5056343;28;20094;-68
2022/09/21 06:08:34;;;;;;;2.65;0.88;;;7.30;99.90;;;;;;5039824;28;20504;-70
2022/09/21 06:11:00;;;;;;;2.40;1.05;;;7.50;99.90;;;;;;5056203;28;20040;-69
2022/09/21 06:13:26;;;;;;;8.30;1.45;;;7.40;99.90;;;;;;5040296;28;20396;-69
2022/09/21 06:15:52;;;;;;;3.70;0.90;;;8.10;99.90;;;;;;5058363;28;20043;-69
2022/09/21 06:18:18;;;;;;;4.13;1.00;;;7.40;99.90;;;;;;5045312;28;20059;-69
2022/09/21 06:20:45;;;;;;;1.73;0.95;;;7.50;99.90;;;;;;5023087;28;20102;-68
2022/09/21 06:23:12;;;;;;;3.53;1.33;;;7.50;99.90;;;;;;5023146;28;20052;-70
2022/09/21 06:25:38;;;;;;;0.85;0.77;;;7.60;99.90;;;;;;5056239;28;20506;-69
2022/09/21 06:28:11;;;;;;;1.70;0.82;;;7.60;99.90;;;;;;5039625;28;20041;-69
2022/09/21 06:30:39;;;;;;;2.63;0.90;;;7.70;99.90;;;;;;5057057;28;20099;-69
2022/09/21 06:33:06;;;;;;;3.97;1.38;;;7.70;99.90;;;;;;5057597;28;20068;-69
2022/09/21 06:35:34;;;;;;;1.73;0.85;;;7.90;99.90;;;;;;5038303;28;20036;-70
2022/09/21 06:38:01;;;;;;;1.20;0.70;;;7.90;99.90;;;;;;5055709;28;20048;-70
2022/09/21 06:40:29;;;;;;;2.42;1.17;;;8.10;99.90;;;;;;5038787;28;20055;-69
2022/09/21 06:42:59;;;;;;;3.83;1.05;;;8.30;99.90;;;;;;5055573;28;20044;-69
2022/09/21 06:45:27;;;;;;;1.30;0.80;;;8.40;99.90;;;;;;5055902;28;20046;-68
2022/09/21 06:47:53;;;;;;;1.13;0.77;;;8.70;99.90;;;;;;5055836;28;20070;-69
2022/09/21 06:50:19;;;;;;;2.13;0.95;;;8.60;99.90;;;;;;5039059;28;20045;-70
2022/09/21 06:52:45;;;;;;;1.55;1.05;;;8.60;99.90;;;;;;5039324;28;20036;-68
2022/09/21 06:55:11;;;;;;;1.88;0.88;;;9.10;99.90;;;;;;5055391;28;20040;-69
2022/09/21 06:57:40;;;;;;;1.27;0.98;;;9.10;99.90;;;;;;5055456;28;20082;-69
2022/09/21 07:00:08;;;;;;;1.92;0.90;;;9.60;99.90;;;;;;5056202;28;20114;-67
2022/09/21 07:02:34;;;;;;;2.45;0.90;;;9.50;99.90;;;;;;5021953;28;20041;-69
2022/09/21 07:05:00;;;;;;;2.85;1.05;;;9.60;99.90;;;;;;5055103;28;20070;-68
2022/09/21 07:07:30;;;;;;;4.00;1.08;;;9.70;99.90;;;;;;5055325;28;20045;-69
2022/09/21 07:09:58;;;;;;;4.18;0.95;;;9.90;99.90;;;;;;5055182;28;20132;-69
2022/09/21 07:12:25;;;;;;;2.42;1.00;;;10.10;99.90;;;;;;5055532;28;20430;-68
2022/09/21 07:14:51;;;;;;;1.38;0.85;;;10.20;99.90;;;;;;5055452;28;20381;-69
2022/09/21 07:17:17;;;;;;;1.40;0.90;;;10.30;99.90;;;;;;5055387;28;20075;-69
2022/09/21 07:19:42;;;;;;;1.00;0.70;;;10.50;99.90;;;;;;5022459;28;20087;-69
2022/09/21 07:22:08;;;;;;;2.50;0.40;;;10.60;99.90;;;;;;5055033;28;20098;-69
2022/09/21 07:24:34;;;;;;;0.47;0.47;;;10.70;99.90;;;;;;5055601;28;20072;-68
2022/09/21 07:27:00;;;;;;;1.50;0.68;;;;;;;;;;5041386;28;20101;-68
2022/09/21 07:29:26;;;;;;;3.58;0.85;;;;;;;;;;5055345;28;20062;-68
2022/09/21 07:31:52;;;;;;;2.35;0.70;;;;;;;;;;5038673;28;20037;-68
2022/09/21 07:34:18;;;;;;;2.90;0.70;;;;;;;;;;5055455;28;20395;-70
2022/09/21 07:36:44;;;;;;;1.15;0.70;;;;;;;;;;5038535;28;20400;-69
2022/09/21 07:39:11;;;;;;;3.58;0.70;;;;;;;;;;5055476;28;20099;-68
2022/09/21 07:41:37;;;;;;;0.73;0.52;;;;;;;;;;5039055;28;20049;-69
2022/09/21 07:44:03;;;;;;;2.28;0.60;;;11.80;99.90;;;;;;5055280;28;20036;-70
2022/09/21 07:46:29;;;;;;;0.30;0.30;;;12.00;99.90;;;;;;5039242;28;20037;-68
2022/09/21 07:48:56;;;;;;;1.02;0.43;;;12.30;99.90;;;;;;5042330;28;20040;-69
2022/09/21 07:51:22;;;;;;;0.82;0.40;;;12.40;99.90;;;;;;5059015;28;20093;-69
2022/09/21 07:53:55;;;;;;;0.40;0.40;;;12.30;99.90;;;;;;5058953;28;20050;-69
2022/09/21 07:56:21;;;;;;;2.40;0.50;;;;;;;;;;5042257;28;20040;-70
2022/09/21 07:59:06;;;;;;;1.02;0.60;;;12.60;99.90;;;;;;5059068;28;20041;-69
2022/09/21 08:01:32;;;;;;;3.10;0.60;;;12.60;99.90;;;;;;5044468;28;20045;-68
2022/09/21 08:03:59;;;;;;;2.90;0.50;;;12.80;99.90;;;;;;5058586;28;20051;-69
2022/09/21 08:06:28;;;;;;;0.82;0.45;;;13.00;99.90;;;;;;5042059;28;20407;-69
2022/09/21 08:08:54;;;;;;;1.00;0.60;;;;;;;;;;5058782;28;20046;-69
2022/09/21 08:11:24;;;;;;;5.60;0.70;;;;;;;;;;5058644;28;20040;-69
2022/09/21 08:13:58;;;;;;;1.30;0.50;;;;;;;;;;5058410;28;20033;-68
2022/09/21 08:16:24;;;;;;;0.38;0.38;;;13.10;99.90;;;;;;5058576;28;20033;-68
2022/09/21 08:18:50;;;;;;;3.10;0.50;;;13.20;99.90;;;;;;5041887;28;20052;-69
2022/09/21 08:21:17;;;;;;;1.80;0.60;;;13.30;99.90;;;;;;5058327;28;20061;-69
2022/09/21 08:23:43;;;;;;;1.98;0.60;;;13.30;99.90;;;;;;5025757;28;20047;-68
2022/09/21 08:26:19;;;;;;;1.38;0.52;;;13.40;99.90;;;;;;5058345;28;20044;-69
2022/09/21 08:28:50;;;;;;;3.45;0.60;;;13.40;99.90;;;;;;5058855;28;20476;-69
2022/09/21 08:31:18;;;;;;;1.45;0.77;;;13.40;99.90;;;;;;5059000;28;20055;-69
2022/09/21 08:33:45;;;;;;;0.75;0.38;;;13.50;99.90;;;;;;5058728;28;20051;-69
2022/09/21 08:36:11;;;;;;;0.32;0.30;;;13.60;99.90;;;;;;5041879;28;20036;-69
2022/09/21 08:38:38;;;;;;;0.85;0.50;;;;;;;;;;5058420;28;20142;-69
2022/09/21 08:41:31;;;;;;;3.70;0.40;;;;;;;;;;5058446;28;20044;-70
2022/09/21 08:44:00;;;;;;;1.23;0.63;;;;;;;;;;5028420;28;20127;-69
2022/09/21 08:46:28;;;;;;;1.60;0.40;;;;;;;;;;5058646;28;20051;-69
2022/09/21 08:49:10;;;;;;;0.68;0.43;;;;;;;;;;5041734;28;20041;-71
2022/09/21 08:51:38;;;;;;;0.52;0.30;;;;;;;;;;5058385;28;20484;-69
2022/09/21 08:54:10;;;;;;;6.13;0.68;;;;;;;;;;5075887;28;20044;-68
2022/09/21 08:56:36;;;;;;;0.40;0.30;;;;;;;;;;5058266;28;20044;-69
2022/09/21 08:59:02;;;;;;;0.75;0.30;;;;;;;;;;5024898;28;20507;-69
2022/09/21 09:01:32;;;;;;;0.77;0.30;;;;;;;;;;5042275;28;20556;-69
2022/09/21 09:04:06;;;;;;;2.22;0.45;;;;;;;;;;5058192;28;20036;-69
2022/09/21 09:06:51;;;;;;;0.43;0.30;;;;;;;;;;5057741;28;20037;-69
2022/09/21 09:09:29;;;;;;;1.75;0.40;;;;;;;;;;5058175;28;20041;-69
2022/09/21 09:12:15;;;;;;;0.47;0.25;;;;;;;;;;5058024;28;20037;-70
2022/09/21 09:14:54;;;;;;;0.43;0.20;;;;;;;;;;5044611;28;20061;-69
2022/09/21 09:17:36;;;;;;;1.45;0.50;;;;;;;;;;5041895;28;20040;-69
2022/09/21 09:20:05;;;;;;;1.20;0.30;;;;;;;;;;5041444;28;20091;-69
2022/09/21 09:22:34;;;;;;;1.95;0.60;;;;;;;;;;5041420;28;20487;-70
2022/09/21 09:25:05;;;;;;;3.03;0.50;;;;;;;;;;5058423;28;20483;-69
2022/09/21 09:27:37;;;;;;;0.68;0.50;;;;;;;;;;5057634;28;20056;-69
2022/09/21 09:30:03;;;;;;;0.35;0.35;;;;;;;;;;5057661;28;20068;-70
2022/09/21 09:32:33;;;;;;;0.38;0.30;;;;;;;;;;5040977;28;20534;-69
2022/09/21 09:35:19;;;;;;;3.30;0.60;;;;;;;;;;5041362;28;20387;-69
2022/09/21 09:37:46;;;;;;;0.68;0.43;;;;;;;;;;5044022;28;20044;-69
2022/09/21 09:40:13;;;;;;;0.35;0.22;;;;;;;;;;5057793;28;20495;-70
2022/09/21 09:42:50;;;;;;;2.55;0.30;;;;;;;;;;5041104;28;20408;-69
2022/09/21 09:45:39;;;;;;;1.77;0.50;;;15.10;83.30;;;;;;5040195;28;20045;-69
2022/09/21 09:48:33;;;;;;;1.70;0.50;;;15.10;84.60;;;;;;5057213;28;20041;-71
2022/09/21 09:50:59;;;;;;;0.60;0.40;;;15.20;85.40;;;;;;5058348;28;20072;-70
2022/09/21 09:53:26;;;;;;;0.57;0.30;;;15.20;87.10;;;;;;5040551;28;20122;-71
2022/09/21 09:55:54;;;;;;;0.45;0.30;;;15.30;80.50;;;;;;5056535;28;20040;-72
2022/09/21 09:58:42;;;;;;;0.93;0.40;;;15.30;77.20;;;;;;5056287;28;20037;-71
2022/09/21 10:01:10;;;;;;;0.20;0.20;;;15.50;78.10;;;;;;5056192;28;20045;-70
2022/09/21 10:03:37;;;;;;;0.52;0.30;;;15.60;77.80;;;;;;5056274;28;20048;-71
2022/09/21 10:06:03;;;;;;;3.20;0.40;;;15.80;81.00;;;;;;5039912;28;20036;-71
2022/09/21 10:08:43;;;;;;;0.73;0.32;;;15.90;68.00;;;;;;5055922;28;20041;-70
2022/09/21 10:11:12;;;;;;;1.55;0.50;;;16.10;73.00;;;;;;5038575;28;20479;-70
2022/09/21 10:13:40;;;;;;;0.63;0.38;;;16.20;74.30;;;;;;5039320;28;20036;-71
2022/09/21 10:16:22;;;;;;;0.95;0.30;;;16.30;68.80;;;;;;5056050;28;20491;-71
2022/09/21 10:18:58;;;;;;;0.70;0.43;;;16.30;59.70;;;;;;5039135;28;20041;-71
2022/09/21 10:21:34;;;;;;;0.65;0.30;;;16.40;57.60;;;;;;5055624;28;20068;-70
2022/09/21 10:24:21;;;;;;;0.60;0.30;;;16.30;62.20;;;;;;5055672;28;20040;-70
2022/09/21 10:26:51;;;;;;;1.08;0.30;;;16.20;60.80;;;;;;5039252;28;20395;-70
2022/09/21 10:29:21;;;;;;;0.80;0.20;;;16.10;62.30;;;;;;5055690;28;20040;-70
2022/09/21 10:32:11;;;;;;;0.55;0.25;;;16.10;57.00;;;;;;5038972;28;20037;-70
2022/09/21 10:34:39;;;;;;;0.22;0.22;;;15.90;63.30;;;;;;5055042;28;20072;-70
2022/09/21 10:37:25;;;;;;;0.35;0.30;;;15.80;71.80;;;;;;5039016;28;20044;-69
2022/09/21 10:39:51;;;;;;;1.25;0.43;;;15.70;58.10;;;;;;5056151;28;20566;-70
2022/09/21 10:42:18;;;;;;;2.35;0.40;;;15.80;64.20;;;;;;5022376;28;20068;-70
2022/09/21 10:45:02;;;;;;;1.40;0.60;;;15.70;61.90;;;;;;5038580;28;20047;-70
2022/09/21 10:47:35;;;;;;;1.42;0.50;;;15.50;60.00;;;;;;5055234;28;20094;-70
2022/09/21 10:50:20;;;;;;;3.15;0.30;;;15.40;66.20;;;;;;5055546;28;20475;-70
2022/09/21 10:52:47;;;;;;;1.45;0.40;;;15.30;62.10;;;;;;5039139;28;20495;-70
2022/09/21 10:55:19;;;;;;;1.10;0.40;;;15.30;72.00;;;;;;5055120;28;20097;-70
2022/09/21 10:57:46;;;;;;;0.75;0.45;;;15.50;70.80;;;;;;5055380;28;20480;-70
2022/09/21 11:00:24;;;;;;;1.38;0.30;;;15.70;63.60;;;;;;5055070;28;20102;-71
2022/09/21 11:02:50;;;;;;;0.47;0.20;;;15.90;56.90;;;;;;5055315;28;20445;-70
2022/09/21 11:05:23;;;;;;;0.35;0.25;;;16.00;40.70;;;;;;5055338;28;20056;-70
2022/09/21 11:08:05;;;;;;;2.00;0.50;;;16.00;43.30;;;;;;5054991;28;20051;-70
2022/09/21 11:11:02;;;;;;;1.67;0.50;;;16.10;34.90;;;;;;5038444;28;20119;-70
2022/09/21 11:13:33;;;;;;;0.43;0.30;;;16.20;46.70;;;;;;5055050;28;20041;-70
2022/09/21 11:16:20;;;;;;;1.27;0.50;;;16.20;38.20;;;;;;5054917;28;20043;-70
2022/09/21 11:19:03;;;;;;;4.50;0.30;;;16.30;45.00;;;;;;5055213;28;20399;-70
2022/09/21 11:21:45;;;;;;;0.40;0.35;;;16.30;38.20;;;;;;5038831;28;20048;-70
2022/09/21 11:24:49;;;;;;;1.75;0.50;;;16.40;48.70;;;;;;5059229;28;20052;-71
2022/09/21 11:27:20;;;;;;;3.60;0.30;;;16.40;49.70;;;;;;5042135;28;20045;-70
2022/09/21 11:30:01;;;;;;;2.85;0.47;;;16.40;51.20;;;;;;5059092;28;20381;-70
2022/09/21 11:32:55;;;;;;;1.55;0.30;;;16.50;52.50;;;;;;5058816;28;20043;-70
2022/09/21 11:35:46;;;;;;;0.63;0.40;;;16.50;35.90;;;;;;5058725;28;20125;-70
2022/09/21 11:38:35;;;;;;;4.00;0.38;;;16.40;45.60;;;;;;5058720;28;20044;-70
2022/09/21 11:41:25;;;;;;;0.70;0.20;;;16.50;41.20;;;;;;5046321;28;20044;-70
2022/09/21 11:44:28;;;;;;;0.22;0.22;;;16.60;54.30;;;;;;5058662;28;20067;-70
2022/09/21 11:47:20;;;;;;;2.30;0.40;;;16.60;29.70;;;;;;5058462;28;20121;-72
2022/09/21 11:49:57;;;;;;;1.02;0.35;;;16.70;40.80;;;;;;5058538;28;20187;-71
2022/09/21 11:52:37;;;;;;;0.95;0.40;;;16.70;29.60;;;;;;5041829;28;20033;-71
2022/09/21 11:55:15;;;;;;;0.50;0.32;;;16.80;39.70;;;;;;5058338;28;20044;-70
2022/09/21 11:58:08;;;;;;;0.32;0.25;;;16.90;48.60;;;;;;5058357;28;20044;-71
2022/09/21 12:00:50;;;;;;;0.30;0.20;;;16.90;40.90;;;;;;5058695;28;20040;-70
2022/09/21 12:04:14;;;;;;;1.52;0.40;;;16.90;42.40;;;;;;5058273;28;20084;-70
2022/09/21 12:07:04;;;;;;;1.55;0.40;;;17.00;43.30;;;;;;4978361;28;20046;-78
2022/09/21 12:09:39;;;;;;;2.65;0.52;;;17.10;41.40;;;;;;4978714;28;20537;-76
2022/09/21 12:12:24;;;;;;;0.57;0.30;;;17.10;19.80;;;;;;5034079;28;20080;-70
2022/09/21 12:15:05;;;;;;;0.75;0.40;;;17.20;35.60;;;;;;5041446;28;20041;-70
2022/09/21 12:18:00;;;;;;;0.22;0.22;;;17.30;1.00;;;;;;5058030;28;20041;-79
2022/09/21 12:20:38;;;;;;;0.98;0.40;;;17.40;30.00;;;;;;5057937;28;20069;-75
2022/09/21 12:23:13;;;;;;;0.32;0.25;;;17.40;28.40;;;;;;5058151;28;20499;-72
2022/09/21 12:25:45;;;;;;;1.17;0.30;;;17.50;39.10;;;;;;5041321;28;20045;-71
2022/09/21 12:28:16;;;;;;;0.57;0.30;;;17.50;14.70;;;;;;5041106;28;20404;-70
2022/09/21 12:30:47;;;;;;;2.60;0.40;;;17.30;14.50;;;;;;5057796;28;20041;-70
2022/09/21 12:33:39;;;;;;;0.40;0.30;;;17.00;26.40;;;;;;5040045;28;20082;-69
2022/09/21 12:36:31;;;;;;;1.55;0.30;;;17.00;24.20;;;;;;5041290;28;20036;-69
2022/09/21 12:39:27;;;;;;;2.28;0.30;;;17.00;1.00;;;;;;5057409;28;20076;-70
2022/09/21 12:42:04;;;;;;;3.58;0.38;;;17.10;6.30;;;;;;5057568;28;20150;-69
2022/09/21 12:44:51;;;;;;;0.52;0.50;;;17.10;1.00;;;;;;5057734;28;20446;-69
2022/09/21 12:47:26;;;;;;;0.55;0.30;;;17.00;1.00;;;;;;5041010;28;20048;-69
2022/09/21 12:50:02;;;;;;;1.27;0.20;;;17.00;23.70;;;;;;5057156;28;20045;-69
2022/09/21 12:52:29;;;;;;;0.30;0.10;;;16.90;1.00;;;;;;5040775;28;20036;-69
2022/09/21 12:55:36;;;;;;;0.88;0.22;;;17.00;12.90;;;;;;5057332;28;20048;-70
2022/09/21 12:58:21;;;;;;;1.27;0.43;;;17.10;13.00;;;;;;5057183;28;20131;-70
2022/09/21 13:01:10;;;;;;;0.63;0.40;;;17.10;1.00;;;;;;5057170;28;20072;-69
2022/09/21 13:03:43;;;;;;;0.85;0.35;;;17.10;1.00;;;;;;5057442;28;20119;-69
2022/09/21 13:06:46;;;;;;;0.10;0.10;;;17.10;1.00;;;;;;5057075;28;20101;-69
2022/09/21 13:09:16;;;;;;;0.65;0.30;;;17.10;1.00;;;;;;5057097;28;20051;-69
2022/09/21 13:12:08;;;;;;;0.13;0.13;;;17.00;99.90;;;;;;5040769;28;20518;-70
2022/09/21 13:14:40;;;;;;;0.80;0.20;;;16.80;1.00;;;;;;5036510;28;20045;-69
2022/09/21 13:17:14;;;;;;;0.20;0.20;;;16.70;1.00;;;;;;5057010;28;20049;-69
2022/09/21 13:19:40;;;;;;;0.90;0.30;;;16.50;1.00;;;;;;5056551;28;20072;-70
2022/09/21 13:22:14;;;;;;;0.20;0.20;;;16.40;1.00;;;;;;5056801;28;20106;-69
2022/09/21 13:24:41;;;;;;;1.58;0.40;;;;;;;;;;5056764;28;20032;-70
2022/09/21 13:27:08;;;;;;;1.33;0.40;;;;;;;;;;5040158;28;20040;-69
2022/09/21 13:29:36;;;;;;;0.60;0.20;;;16.30;1.00;;;;;;5057010;28;20418;-69
2022/09/21 13:32:12;;;;;;;0.75;0.20;;;16.40;1.00;;;;;;5056627;28;20039;-70
2022/09/21 13:34:42;;;;;;;0.52;0.20;;;16.30;1.00;;;;;;5056573;28;20040;-69
2022/09/21 13:37:11;;;;;;;0.45;0.30;;;16.30;1.00;;;;;;5039949;28;20041;-69
2022/09/21 13:40:00;;;;;;;1.40;0.30;;;16.20;1.00;;;;;;5056462;28;20051;-69
2022/09/21 13:42:29;;;;;;;0.73;0.43;;;16.20;1.00;;;;;;5040110;28;20522;-69
2022/09/21 13:45:14;;;;;;;0.88;0.15;;;16.10;1.00;;;;;;5039481;28;20048;-69
2022/09/21 13:47:44;;;;;;;0.50;0.35;;;;;;;;;;5056477;28;20449;-69
2022/09/21 13:50:44;;;;;;;1.98;0.20;;;16.00;1.00;;;;;;5040295;28;20098;-69
2022/09/21 13:53:23;;;;;;;1.45;0.35;;;15.90;1.00;;;;;;5055636;28;20080;-69
2022/09/21 13:55:52;;;;;;;1.05;0.30;;;15.80;1.00;;;;;;5039562;28;20037;-69